Time;durP1;ratioP1;P1;durP2;ratioP2;P2;SDS_P1;SDS_P2;PMS_P1;PMS_P2;Temp;Humidity;BMP_temperature;BMP_pressure;BME280_temperature;BME280_humidity;BME280_pressure;Samples;Min_cycle;Max_cycle;Signal;HPM_P1;HPM_P2
2022/12/13 00:01:22;;;;;;;19.80;16.75;;;-1.90;43.30;;;;;;20577;6827;340196;-77
2022/12/13 00:03:49;;;;;;;17.97;13.50;;;-1.90;43.90;;;;;;20858;6810;118656;-77
2022/12/13 00:06:15;;;;;;;15.90;12.60;;;-2.00;43.90;;;;;;20854;6810;117932;-77
2022/12/13 00:08:41;;;;;;;16.90;12.40;;;-2.20;44.20;;;;;;20839;6810;118733;-77
2022/12/13 00:11:07;;;;;;;16.60;12.53;;;-2.40;44.50;;;;;;20858;6810;117588;-77
2022/12/13 00:13:33;;;;;;;20.33;13.37;;;-2.70;45.80;;;;;;20844;6810;119872;-77
2022/12/13 00:15:59;;;;;;;20.48;17.40;;;-2.80;45.10;;;;;;20643;6810;307068;-77
2022/12/13 00:18:24;;;;;;;19.33;17.27;;;-2.60;45.60;;;;;;20636;6810;309797;-77
2022/12/13 00:20:50;;;;;;;20.90;18.70;;;-2.20;45.50;;;;;;20615;6810;309406;-77
2022/12/13 00:23:15;;;;;;;19.15;17.23;;;-1.90;44.80;;;;;;20637;6810;278011;-77
2022/12/13 00:25:42;;;;;;;16.27;13.60;;;-1.80;44.00;;;;;;20860;6810;117933;-77
2022/12/13 00:28:07;;;;;;;19.60;17.53;;;-1.80;44.00;;;;;;20651;6810;313126;-77
2022/12/13 00:30:33;;;;;;;21.10;18.80;;;-1.80;44.10;;;;;;20618;6810;306682;-77
2022/12/13 00:33:00;;;;;;;20.70;18.48;;;-1.40;43.60;;;;;;20651;6810;307916;-77
2022/12/13 00:35:26;;;;;;;20.40;18.23;;;-1.50;43.30;;;;;;20632;6810;302982;-77
2022/12/13 00:37:52;;;;;;;20.85;18.65;;;-1.30;43.10;;;;;;20566;6838;308977;-77
2022/12/13 00:40:20;;;;;;;20.13;18.17;;;-1.30;42.80;;;;;;20553;6838;308753;-77
2022/12/13 00:42:44;;;;;;;21.03;18.73;;;-1.20;42.80;;;;;;20542;6838;277861;-78
2022/12/13 00:45:10;;;;;;;19.40;14.75;;;-1.10;42.60;;;;;;20764;6838;119835;-78
2022/12/13 00:47:35;;;;;;;20.60;18.37;;;-1.40;42.60;;;;;;20554;6837;308702;-78
2022/12/13 00:50:01;;;;;;;18.00;15.30;;;-1.60;42.90;;;;;;20745;6837;117436;-77
2022/12/13 00:52:26;;;;;;;21.30;19.00;;;-1.80;43.00;;;;;;20556;6838;340149;-77
2022/12/13 00:54:52;;;;;;;18.27;14.38;;;-1.90;43.50;;;;;;20746;6838;119578;-77
2022/12/13 00:57:18;;;;;;;20.05;17.95;;;-2.00;43.70;;;;;;20555;6838;339983;-77
2022/12/13 00:59:43;;;;;;;22.27;17.77;;;-2.00;44.40;;;;;;20764;6838;118062;-79
2022/12/13 01:02:09;;;;;;;19.87;15.90;;;-2.00;44.50;;;;;;20768;6838;117709;-77
2022/12/13 01:04:34;;;;;;;22.45;19.58;;;-2.30;44.60;;;;;;20538;6838;339762;-77
2022/12/13 01:07:00;;;;;;;23.33;20.13;;;-2.30;44.90;;;;;;20559;6838;287153;-77
2022/12/13 01:09:32;;;;;;;23.70;21.20;;;-2.00;44.50;;;;;;20547;6838;311744;-77
2022/12/13 01:11:58;;;;;;;18.70;16.00;;;-1.90;44.00;;;;;;20757;6838;117648;-77
2022/12/13 01:14:23;;;;;;;18.97;13.43;;;-1.90;44.00;;;;;;20770;6838;117625;-80
2022/12/13 01:16:49;;;;;;;15.48;13.38;;;-2.20;44.40;;;;;;20748;6838;117824;-77
2022/12/13 01:19:14;;;;;;;18.93;12.90;;;-2.40;45.10;;;;;;20763;6838;118310;-77
2022/12/13 01:21:40;;;;;;;16.23;12.82;;;-2.60;45.50;;;;;;20760;6838;118728;-77
2022/12/13 01:24:08;;;;;;;21.15;17.95;;;-2.80;45.70;;;;;;20553;6838;279234;-82
2022/12/13 01:26:34;;;;;;;17.23;13.63;;;-2.70;45.50;;;;;;20754;6838;120282;-79
2022/12/13 01:29:00;;;;;;;19.93;13.87;;;-2.80;45.50;;;;;;20773;6838;117803;-77
2022/12/13 01:31:25;;;;;;;22.50;19.23;;;-2.90;45.60;;;;;;20543;6838;281600;-77
2022/12/13 01:33:54;;;;;;;22.37;19.97;;;-2.80;45.80;;;;;;20562;6838;323899;-79
2022/12/13 01:36:19;;;;;;;24.30;21.60;;;-2.50;45.30;;;;;;20556;6838;307708;-79
2022/12/13 01:38:45;;;;;;;20.47;16.20;;;-2.20;45.00;;;;;;20751;6838;121708;-77
2022/12/13 01:41:14;;;;;;;22.70;20.30;;;-2.30;44.70;;;;;;20552;6838;307422;-81
2022/12/13 01:43:39;;;;;;;19.63;15.43;;;-2.30;45.00;;;;;;20759;6838;118002;-77
2022/12/13 01:46:05;;;;;;;23.10;20.67;;;-2.40;45.20;;;;;;20560;6838;278864;-81
2022/12/13 01:48:31;;;;;;;20.17;16.47;;;-2.40;45.20;;;;;;20751;6838;118114;-78
2022/12/13 01:50:57;;;;;;;22.80;20.20;;;-2.40;45.10;;;;;;20540;6838;307838;-82
2022/12/13 01:53:23;;;;;;;23.67;21.17;;;-2.10;45.40;;;;;;20570;6838;279893;-76
2022/12/13 01:55:49;;;;;;;23.10;17.63;;;-2.20;45.30;;;;;;20769;6838;117695;-77
2022/12/13 01:58:14;;;;;;;19.20;15.73;;;-2.20;45.00;;;;;;20744;6838;119709;-77
2022/12/13 02:00:40;;;;;;;19.00;14.73;;;-2.40;45.30;;;;;;20740;6837;117500;-77
2022/12/13 02:03:05;;;;;;;25.60;21.35;;;-2.60;45.70;;;;;;20558;6838;337715;-79
2022/12/13 02:05:40;;;;;;;23.70;20.13;;;-2.60;46.80;;;;;;20548;6838;337582;-77
2022/12/13 02:08:06;;;;;;;23.83;21.33;;;-2.30;45.80;;;;;;20583;6838;306559;-78
2022/12/13 02:10:31;;;;;;;22.00;16.87;;;-2.00;45.20;;;;;;20762;6838;117569;-78
2022/12/13 02:12:57;;;;;;;19.95;15.88;;;-2.10;44.90;;;;;;20769;6838;117764;-76
2022/12/13 02:15:24;;;;;;;18.48;14.77;;;-2.30;45.20;;;;;;20785;6838;118995;-78
2022/12/13 02:18:09;;;;;;;23.38;20.37;;;-2.50;45.50;;;;;;20561;6838;308348;-76
2022/12/13 02:20:35;;;;;;;25.13;21.87;;;-2.50;45.80;;;;;;20537;6838;335958;-78
2022/12/13 02:23:13;;;;;;;21.20;16.27;;;-2.20;45.40;;;;;;20402;6838;118434;-76
2022/12/13 02:25:42;;;;;;;20.53;14.33;;;-2.20;45.10;;;;;;20680;6838;118128;-78
2022/12/13 02:28:37;;;;;;;18.33;14.23;;;-2.50;45.30;;;;;;20748;6838;118366;-77
2022/12/13 02:31:09;;;;;;;17.30;13.50;;;-2.80;45.60;;;;;;20707;6838;118212;-77
2022/12/13 02:33:45;;;;;;;23.03;20.17;;;-3.00;45.90;;;;;;20545;6838;280706;-76
2022/12/13 02:36:27;;;;;;;22.87;19.97;;;-2.90;46.20;;;;;;20523;6838;281548;-80
2022/12/13 02:38:58;;;;;;;23.30;20.80;;;-2.60;45.80;;;;;;20524;6838;309679;-77
2022/12/13 02:41:39;;;;;;;22.20;16.33;;;-2.30;45.00;;;;;;20738;6838;118707;-77
2022/12/13 02:44:05;;;;;;;17.83;14.57;;;-2.40;45.30;;;;;;20756;6838;117606;-77
2022/12/13 02:46:31;;;;;;;19.70;13.73;;;-2.80;45.80;;;;;;20739;6838;119578;-78
2022/12/13 02:48:57;;;;;;;16.63;13.17;;;-2.90;45.60;;;;;;20744;6838;117967;-77
2022/12/13 02:51:22;;;;;;;22.87;20.00;;;-3.00;46.10;;;;;;20535;6838;337447;-77
2022/12/13 02:53:48;;;;;;;23.00;20.50;;;-2.90;46.50;;;;;;20544;6838;337061;-77
2022/12/13 02:56:13;;;;;;;24.55;21.85;;;-2.60;45.90;;;;;;20542;6838;308265;-77
2022/12/13 02:58:42;;;;;;;21.50;16.02;;;-2.30;45.30;;;;;;20730;6838;128636;-77
2022/12/13 03:01:14;;;;;;;25.20;20.60;;;-2.30;45.00;;;;;;20523;6838;310457;-77
2022/12/13 03:03:50;;;;;;;22.70;20.30;;;-2.30;45.20;;;;;;20547;6838;307826;-76
2022/12/13 03:06:28;;;;;;;22.67;16.93;;;-2.10;45.00;;;;;;20735;6838;117529;-76
2022/12/13 03:08:54;;;;;;;22.03;15.07;;;-2.20;44.90;;;;;;20773;6838;117650;-76
2022/12/13 03:11:20;;;;;;;20.15;14.65;;;-2.50;45.20;;;;;;20766;6832;120074;-76
2022/12/13 03:13:52;;;;;;;19.45;13.55;;;-2.80;45.70;;;;;;20779;6833;117402;-76
2022/12/13 03:16:35;;;;;;;15.37;11.97;;;-2.90;46.10;;;;;;20668;6833;121905;-77
2022/12/13 03:19:00;;;;;;;19.92;16.80;;;-2.90;46.70;;;;;;20571;6833;278580;-77
2022/12/13 03:21:27;;;;;;;17.50;14.33;;;-3.00;46.60;;;;;;20774;6833;117499;-77
2022/12/13 03:23:52;;;;;;;22.30;15.17;;;-2.80;46.40;;;;;;20785;6833;118961;-77
2022/12/13 03:26:24;;;;;;;19.00;13.95;;;-3.00;46.30;;;;;;20783;6833;117856;-77
2022/12/13 03:28:50;;;;;;;16.80;13.40;;;-3.10;46.50;;;;;;20759;6833;117936;-79
2022/12/13 03:31:16;;;;;;;16.97;13.70;;;-3.20;46.70;;;;;;20787;6833;117711;-77
2022/12/13 03:33:41;;;;;;;21.70;18.57;;;-3.30;47.00;;;;;;20576;6833;277972;-77
2022/12/13 03:36:07;;;;;;;18.83;14.27;;;-3.20;46.90;;;;;;20781;6833;121147;-77
2022/12/13 03:38:33;;;;;;;18.00;13.63;;;-3.20;46.70;;;;;;20780;6830;117618;-77
2022/12/13 03:41:02;;;;;;;17.03;13.77;;;-3.20;46.70;;;;;;20793;6830;123665;-77
2022/12/13 03:43:27;;;;;;;23.77;18.83;;;-3.30;46.90;;;;;;20578;6830;308015;-77
2022/12/13 03:45:53;;;;;;;24.00;19.73;;;-3.10;46.90;;;;;;20581;6830;341745;-77
2022/12/13 03:48:19;;;;;;;21.58;19.10;;;-2.50;45.40;;;;;;20593;6830;278547;-77
2022/12/13 03:50:45;;;;;;;22.10;19.75;;;-2.50;45.40;;;;;;20560;6827;307188;-77
2022/12/13 03:53:10;;;;;;;21.23;15.15;;;-2.30;44.70;;;;;;20857;6810;118828;-77
2022/12/13 03:55:36;;;;;;;21.92;18.87;;;-2.40;44.60;;;;;;20645;6810;300258;-77
2022/12/13 03:58:02;;;;;;;17.45;14.00;;;-2.40;44.90;;;;;;20858;6810;117716;-76
2022/12/13 04:00:28;;;;;;;20.33;18.10;;;-2.60;44.80;;;;;;20652;6810;277321;-77
2022/12/13 04:02:54;;;;;;;18.93;14.20;;;-2.60;44.90;;;;;;20859;6810;117575;-77
2022/12/13 04:05:20;;;;;;;20.62;18.00;;;-2.60;45.00;;;;;;20639;6810;308917;-78
2022/12/13 04:07:46;;;;;;;18.03;14.30;;;-2.70;44.90;;;;;;20861;6810;118725;-77
2022/12/13 04:10:11;;;;;;;15.47;11.80;;;-2.70;44.90;;;;;;20850;6810;117425;-77
2022/12/13 04:15:22;;;;;;;17.63;12.43;;;-3.10;45.40;;;;;;20764;6838;118133;-78
2022/12/13 04:17:48;;;;;;;18.60;16.60;;;-3.30;45.70;;;;;;20575;6838;281692;-78
2022/12/13 04:20:14;;;;;;;19.70;17.60;;;-3.20;45.90;;;;;;20570;6833;308528;-79
2022/12/13 04:22:39;;;;;;;19.57;17.53;;;-2.90;45.40;;;;;;20521;6831;314002;-75
2022/12/13 04:25:06;;;;;;;19.17;17.25;;;-2.60;44.80;;;;;;20575;6829;306920;-75
2022/12/13 04:27:31;;;;;;;15.03;12.87;;;-2.40;44.20;;;;;;20782;6830;118146;-75
2022/12/13 04:29:57;;;;;;;14.00;12.13;;;-2.50;44.10;;;;;;20794;6830;117417;-76
2022/12/13 04:32:23;;;;;;;14.43;12.00;;;-2.80;44.40;;;;;;20801;6826;118601;-76
2022/12/13 04:34:48;;;;;;;15.93;11.90;;;-3.00;45.00;;;;;;20794;6827;120976;-76
2022/12/13 04:37:15;;;;;;;18.90;11.50;;;-3.20;45.30;;;;;;20802;6827;119077;-76
2022/12/13 04:39:40;;;;;;;15.40;11.87;;;-3.40;45.60;;;;;;20782;6827;117455;-75
2022/12/13 04:42:06;;;;;;;15.20;10.97;;;-3.60;45.70;;;;;;20778;6827;117522;-74
2022/12/13 04:44:32;;;;;;;17.10;15.30;;;-3.60;46.10;;;;;;20552;6827;306738;-76
2022/12/13 04:46:57;;;;;;;17.87;15.63;;;-3.50;46.50;;;;;;20642;6810;277940;-75
2022/12/13 04:49:23;;;;;;;17.50;15.70;;;-3.10;46.10;;;;;;20632;6810;336075;-75
2022/12/13 04:51:52;;;;;;;15.70;12.27;;;-2.80;44.90;;;;;;20826;6810;117698;-77
2022/12/13 04:54:18;;;;;;;15.70;11.33;;;-2.80;44.90;;;;;;20841;6810;117521;-78
2022/12/13 04:56:44;;;;;;;16.33;11.33;;;-3.00;45.00;;;;;;20824;6810;117700;-81
2022/12/13 04:59:11;;;;;;;18.03;15.67;;;-3.10;45.60;;;;;;20639;6810;279085;-79
2022/12/13 05:01:36;;;;;;;23.03;20.53;;;-3.10;45.70;;;;;;20633;6810;336102;-78
2022/12/13 05:04:02;;;;;;;18.00;16.10;;;-2.80;45.30;;;;;;20619;6810;295123;-80
2022/12/13 05:06:27;;;;;;;14.40;12.33;;;-2.40;44.60;;;;;;20858;6810;117804;-80
2022/12/13 05:08:53;;;;;;;17.15;15.35;;;-2.50;44.20;;;;;;20648;6810;310496;-78
2022/12/13 05:11:19;;;;;;;17.47;15.67;;;-2.50;44.10;;;;;;20644;6810;306692;-79
2022/12/13 05:13:45;;;;;;;13.88;11.35;;;-2.40;43.80;;;;;;20860;6810;122617;-78
2022/12/13 05:16:11;;;;;;;16.20;14.50;;;-2.40;43.60;;;;;;20647;6810;277625;-80
2022/12/13 05:18:37;;;;;;;14.17;12.07;;;-2.50;43.60;;;;;;20840;6810;118632;-79
2022/12/13 05:21:03;;;;;;;17.67;15.70;;;-2.60;43.60;;;;;;20641;6810;306475;-79
2022/12/13 05:23:28;;;;;;;17.10;15.40;;;-2.60;43.70;;;;;;20633;6810;307299;-77
2022/12/13 05:25:57;;;;;;;12.77;11.43;;;-2.40;43.40;;;;;;20862;6810;117903;-78
2022/12/13 05:28:24;;;;;;;14.55;11.40;;;-2.80;43.70;;;;;;20850;6810;117155;-79
2022/12/13 05:30:47;;;;;;;14.50;10.83;;;-3.00;44.80;;;;;;20817;6810;118765;-81
2022/12/13 05:33:12;;;;;;;12.97;10.40;;;-3.00;44.10;;;;;;20861;6810;117716;-77
2022/12/13 05:35:38;;;;;;;16.70;15.00;;;-3.20;44.50;;;;;;20561;6837;308516;-76
2022/12/13 05:38:05;;;;;;;16.12;11.68;;;-3.10;44.80;;;;;;20768;6838;118610;-80
2022/12/13 05:40:32;;;;;;;16.33;14.70;;;-3.00;44.80;;;;;;20543;6838;307539;-79
2022/12/13 05:42:57;;;;;;;17.52;15.70;;;-3.10;44.70;;;;;;20556;6838;280194;-77
2022/12/13 05:45:23;;;;;;;17.23;15.50;;;-2.70;44.50;;;;;;20549;6838;309057;-78
2022/12/13 05:47:49;;;;;;;15.40;12.98;;;-2.50;44.00;;;;;;20771;6838;121956;-78
2022/12/13 05:50:14;;;;;;;14.60;11.97;;;-2.60;44.00;;;;;;20765;6838;118997;-80
2022/12/13 05:52:40;;;;;;;17.33;15.63;;;-2.80;44.30;;;;;;20548;6838;325957;-79
2022/12/13 05:55:06;;;;;;;16.20;11.73;;;-2.80;44.50;;;;;;20766;6838;117811;-78
2022/12/13 05:57:32;;;;;;;12.90;11.00;;;-2.90;44.30;;;;;;20756;6838;117788;-78
2022/12/13 05:59:58;;;;;;;17.00;15.13;;;-3.00;44.70;;;;;;20557;6838;278378;-78
2022/12/13 06:02:23;;;;;;;16.77;15.13;;;-3.00;44.90;;;;;;20530;6838;308585;-80
2022/12/13 06:04:49;;;;;;;14.13;12.53;;;-2.70;44.60;;;;;;20748;6838;117653;-79
2022/12/13 06:07:14;;;;;;;13.32;11.93;;;-2.70;44.40;;;;;;20773;6838;121770;-79
2022/12/13 06:09:40;;;;;;;12.30;10.50;;;-2.90;44.50;;;;;;20828;6823;117372;-82
2022/12/13 06:12:06;;;;;;;12.67;9.90;;;-3.10;45.00;;;;;;20773;6838;118178;-76
2022/12/13 06:14:31;;;;;;;11.77;10.07;;;-3.30;45.20;;;;;;20793;6827;119437;-76
2022/12/13 06:16:57;;;;;;;17.20;15.40;;;-3.40;45.70;;;;;;20642;6810;280134;-75
2022/12/13 06:19:22;;;;;;;17.62;15.75;;;-3.30;45.60;;;;;;20648;6810;301342;-78
2022/12/13 06:21:49;;;;;;;16.20;11.98;;;-3.00;45.20;;;;;;20839;6810;118338;-77
2022/12/13 06:24:15;;;;;;;20.80;18.57;;;-2.90;44.90;;;;;;20635;6810;306681;-76
2022/12/13 06:26:40;;;;;;;25.80;21.93;;;-2.80;45.00;;;;;;20622;6810;306660;-77
2022/12/13 06:29:06;;;;;;;22.75;20.15;;;-2.60;44.20;;;;;;20642;6810;336596;-77
2022/12/13 06:31:31;;;;;;;20.17;14.13;;;-2.30;43.60;;;;;;20857;6810;123778;-76
2022/12/13 06:33:57;;;;;;;13.33;11.60;;;-2.40;43.50;;;;;;20862;6810;117373;-78
2022/12/13 06:36:23;;;;;;;18.35;16.20;;;-2.70;43.80;;;;;;20643;6810;277802;-81
2022/12/13 06:38:48;;;;;;;18.37;16.58;;;-2.80;44.20;;;;;;20636;6810;307291;-80
2022/12/13 06:41:14;;;;;;;16.73;14.03;;;-2.60;43.80;;;;;;20860;6810;117866;-79
2022/12/13 06:43:43;;;;;;;17.73;15.83;;;-2.60;43.60;;;;;;20642;6810;303269;-78
2022/12/13 06:46:10;;;;;;;14.30;12.10;;;-2.60;43.80;;;;;;20863;6809;116978;-77
2022/12/13 06:48:35;;;;;;;17.90;16.00;;;-2.70;43.90;;;;;;20629;6810;306225;-76
2022/12/13 06:51:01;;;;;;;18.87;16.87;;;-2.70;43.90;;;;;;20644;6810;307491;-80
2022/12/13 06:53:27;;;;;;;15.50;12.90;;;-2.60;43.10;;;;;;20847;6810;117230;-79
2022/12/13 06:55:53;;;;;;;15.20;12.43;;;-2.60;43.40;;;;;;20860;6810;118202;-81
2022/12/13 06:58:18;;;;;;;14.90;12.50;;;-2.90;43.80;;;;;;20860;6810;117870;-78
2022/12/13 07:00:44;;;;;;;13.33;11.23;;;-3.00;44.40;;;;;;20823;6810;118842;-78
2022/12/13 07:03:09;;;;;;;18.57;16.40;;;-3.30;44.60;;;;;;20646;6810;306744;-78
2022/12/13 07:05:35;;;;;;;16.27;13.30;;;-3.20;44.80;;;;;;20858;6810;117715;-78
2022/12/13 07:08:01;;;;;;;16.52;12.37;;;-3.30;44.70;;;;;;20858;6810;118616;-77
2022/12/13 07:10:27;;;;;;;13.43;10.93;;;-3.30;44.70;;;;;;20863;6810;122715;-78
2022/12/13 07:12:54;;;;;;;13.20;10.80;;;-3.50;45.10;;;;;;20845;6810;119104;-81
2022/12/13 07:15:19;;;;;;;14.07;10.97;;;-3.60;45.80;;;;;;20866;6810;117423;-82
2022/12/13 07:17:49;;;;;;;14.55;10.73;;;-3.80;45.80;;;;;;20864;6810;117357;-78
2022/12/13 07:20:14;;;;;;;12.60;10.63;;;-3.80;45.80;;;;;;20859;6810;118562;-78
2022/12/13 07:22:40;;;;;;;11.90;9.88;;;-3.90;45.90;;;;;;20841;6810;117596;-78
2022/12/13 07:25:06;;;;;;;13.07;10.47;;;-3.90;46.10;;;;;;20852;6810;117416;-77
2022/12/13 07:27:31;;;;;;;16.73;15.03;;;-3.90;46.30;;;;;;20648;6810;278424;-78
2022/12/13 07:29:58;;;;;;;13.57;11.30;;;-3.60;45.80;;;;;;20854;6810;117297;-79
2022/12/13 07:32:23;;;;;;;16.90;15.10;;;-3.60;45.80;;;;;;20640;6810;310146;-81
2022/12/13 07:34:49;;;;;;;13.73;11.73;;;-3.40;45.60;;;;;;20838;6810;117588;-78
2022/12/13 07:37:14;;;;;;;15.52;13.93;;;-3.30;45.40;;;;;;20626;6810;306656;-75
2022/12/13 07:39:40;;;;;;;13.27;11.20;;;-3.10;45.50;;;;;;20862;6810;118779;-83
2022/12/13 07:42:05;;;;;;;17.37;15.02;;;-3.00;45.40;;;;;;20642;6810;308037;-79
2022/12/13 07:44:33;;;;;;;18.40;13.03;;;-2.90;44.70;;;;;;20826;6810;120991;-77
2022/12/13 07:47:00;;;;;;;15.83;11.37;;;-3.00;45.20;;;;;;20866;6810;121533;-75
2022/12/13 07:49:25;;;;;;;17.53;15.70;;;-3.10;44.80;;;;;;20645;6810;309930;-78
2022/12/13 07:51:51;;;;;;;16.70;12.40;;;-3.00;44.40;;;;;;20852;6810;117470;-79
2022/12/13 07:54:18;;;;;;;13.83;10.97;;;-3.20;44.30;;;;;;20859;6810;119859;-78
2022/12/13 07:56:44;;;;;;;15.80;10.77;;;-3.20;45.00;;;;;;20836;6810;118205;-81
2022/12/13 07:59:10;;;;;;;20.67;18.48;;;-3.40;44.60;;;;;;20639;6808;321556;-78
2022/12/13 08:01:36;;;;;;;16.33;13.33;;;-3.40;43.80;;;;;;20865;6810;124213;-76
2022/12/13 08:04:03;;;;;;;17.20;12.93;;;-3.40;43.80;;;;;;20858;6810;117641;-76
2022/12/13 08:06:28;;;;;;;19.80;17.20;;;-3.60;44.00;;;;;;20641;6810;297276;-78
2022/12/13 08:08:54;;;;;;;16.37;13.93;;;-3.50;43.90;;;;;;20792;6833;118145;-77
2022/12/13 08:11:20;;;;;;;15.97;13.07;;;-3.40;43.70;;;;;;20861;6810;117726;-76
2022/12/13 08:13:45;;;;;;;21.27;18.83;;;-3.60;43.90;;;;;;20647;6810;306661;-79
2022/12/13 08:16:13;;;;;;;17.77;14.50;;;-3.30;44.30;;;;;;20860;6810;117300;-76
2022/12/13 08:18:39;;;;;;;13.30;10.67;;;-3.30;44.60;;;;;;20836;6810;117253;-80
2022/12/13 08:21:03;;;;;;;12.23;10.37;;;-3.30;44.60;;;;;;20844;6810;118218;-79
2022/12/13 08:23:29;;;;;;;17.03;12.43;;;-3.30;44.90;;;;;;20859;6810;119738;-76
2022/12/13 08:25:54;;;;;;;11.87;10.60;;;-3.30;45.30;;;;;;20854;6810;117755;-79
2022/12/13 08:28:20;;;;;;;17.12;15.43;;;-3.30;45.60;;;;;;20642;6810;307132;-77
2022/12/13 08:30:46;;;;;;;17.23;15.43;;;-3.00;45.60;;;;;;20635;6810;306001;-77
2022/12/13 08:33:11;;;;;;;14.03;11.83;;;-2.50;44.90;;;;;;20866;6810;117850;-80
2022/12/13 08:35:37;;;;;;;16.02;14.35;;;-2.40;45.10;;;;;;20644;6810;308615;-81
2022/12/13 08:38:03;;;;;;;16.35;14.80;;;-2.10;44.80;;;;;;20639;6810;308139;-80
2022/12/13 08:40:28;;;;;;;16.00;14.37;;;-1.80;43.50;;;;;;20639;6810;296398;-79
2022/12/13 08:42:59;;;;;;;14.93;12.10;;;-1.40;43.00;;;;;;20857;6810;117627;-81
2022/12/13 08:45:25;;;;;;;18.40;14.50;;;-1.40;42.90;;;;;;20651;6810;307590;-79
2022/12/13 08:47:51;;;;;;;16.30;14.70;;;-1.40;42.70;;;;;;20567;6836;311088;-81
2022/12/13 08:50:17;;;;;;;14.07;10.97;;;-1.20;42.20;;;;;;20770;6836;118128;-78
2022/12/13 08:52:44;;;;;;;23.42;15.60;;;-1.20;42.20;;;;;;20779;6836;117876;-78
2022/12/13 08:55:09;;;;;;;16.73;14.93;;;-1.40;42.80;;;;;;20609;6823;306817;-77
2022/12/13 08:57:35;;;;;;;16.60;14.90;;;-1.40;42.80;;;;;;20565;6833;311044;-77
2022/12/13 09:00:00;;;;;;;17.08;15.38;;;-1.10;42.10;;;;;;20565;6833;280021;-82
2022/12/13 09:02:26;;;;;;;13.20;11.87;;;-0.90;41.50;;;;;;20781;6833;117836;-78
2022/12/13 09:04:52;;;;;;;12.27;10.97;;;-1.00;41.50;;;;;;20761;6833;118016;-78
2022/12/13 09:07:17;;;;;;;13.93;10.83;;;-1.30;41.90;;;;;;20774;6833;117447;-76
2022/12/13 09:09:43;;;;;;;16.92;11.77;;;-1.50;42.50;;;;;;20770;6831;119981;-76
2022/12/13 09:12:08;;;;;;;16.53;14.83;;;-1.70;43.00;;;;;;20578;6833;278035;-79
2022/12/13 09:14:35;;;;;;;16.43;14.83;;;-1.60;43.20;;;;;;20548;6833;306782;-77
2022/12/13 09:17:01;;;;;;;16.95;15.15;;;-1.30;42.50;;;;;;20568;6833;303218;-76
2022/12/13 09:19:27;;;;;;;16.50;13.50;;;-1.00;41.70;;;;;;20775;6833;116629;-78
2022/12/13 09:21:52;;;;;;;16.63;14.50;;;-1.00;41.70;;;;;;20580;6833;308473;-76
2022/12/13 09:24:18;;;;;;;17.77;16.07;;;-1.00;41.80;;;;;;20575;6833;282445;-76
2022/12/13 09:26:43;;;;;;;17.27;15.37;;;-0.80;41.30;;;;;;20545;6833;312208;-77
2022/12/13 09:29:09;;;;;;;17.37;15.67;;;-0.60;40.80;;;;;;20574;6833;279158;-76
2022/12/13 09:31:36;;;;;;;17.80;12.27;;;-0.40;40.60;;;;;;20776;6833;120263;-76
2022/12/13 09:34:00;;;;;;;20.13;15.83;;;-0.50;40.80;;;;;;20566;6833;312521;-76
2022/12/13 09:36:27;;;;;;;18.08;13.55;;;-0.60;40.80;;;;;;20799;6833;117536;-76
2022/12/13 09:38:54;;;;;;;18.13;16.23;;;-0.70;41.10;;;;;;20550;6833;310383;-78
2022/12/13 09:41:28;;;;;;;15.03;12.43;;;-0.60;41.10;;;;;;20750;6833;118306;-76
2022/12/13 09:43:56;;;;;;;16.80;15.00;;;-0.70;41.30;;;;;;20563;6833;281375;-77
2022/12/13 09:46:22;;;;;;;17.25;15.52;;;-0.50;41.50;;;;;;20568;6833;335358;-77
2022/12/13 09:48:47;;;;;;;14.38;12.88;;;-0.30;41.00;;;;;;20743;6833;117993;-77
2022/12/13 09:51:13;;;;;;;14.07;11.77;;;-0.30;41.00;;;;;;20767;6833;117802;-76
2022/12/13 09:53:38;;;;;;;17.83;16.03;;;-0.50;41.60;;;;;;20575;6833;305722;-78
2022/12/13 09:56:06;;;;;;;16.42;14.13;;;-0.40;41.60;;;;;;20804;6833;67444;-76
2022/12/13 09:58:31;;;;;;;16.00;13.00;;;-0.40;41.80;;;;;;20764;6833;119110;-77
2022/12/13 10:00:57;;;;;;;17.25;12.48;;;-0.40;42.20;;;;;;20797;6833;119588;-76
2022/12/13 10:03:23;;;;;;;17.57;13.53;;;-0.60;42.20;;;;;;20784;6833;118048;-76
2022/12/13 10:05:58;;;;;;;19.27;17.02;;;-0.70;42.60;;;;;;20582;6833;310130;-76
2022/12/13 10:08:40;;;;;;;19.25;17.25;;;-0.50;42.60;;;;;;20581;6833;296094;-76
2022/12/13 10:11:05;;;;;;;20.48;17.83;;;-0.10;42.10;;;;;;20565;6833;337159;-82
2022/12/13 10:13:38;;;;;;;18.17;14.67;;;0.30;40.90;;;;;;20786;6833;117453;-77
2022/12/13 10:16:03;;;;;;;18.97;13.20;;;0.30;40.90;;;;;;20771;6833;117605;-77
2022/12/13 10:18:35;;;;;;;15.77;12.13;;;0.10;41.10;;;;;;20751;6833;117529;-77
2022/12/13 10:21:05;;;;;;;14.20;12.00;;;0.00;41.70;;;;;;20731;6806;117563;-77
2022/12/13 10:23:31;;;;;;;20.03;16.33;;;-0.10;42.40;;;;;;20567;6806;279905;-79
2022/12/13 10:25:57;;;;;;;20.20;14.32;;;0.10;42.40;;;;;;20863;6806;117862;-77
2022/12/13 10:28:25;;;;;;;20.50;17.10;;;0.20;42.10;;;;;;20659;6806;314358;-82
2022/12/13 10:30:50;;;;;;;17.87;16.02;;;0.40;41.60;;;;;;20633;6806;278002;-76
2022/12/13 10:33:22;;;;;;;19.75;17.70;;;0.80;40.50;;;;;;20666;6807;278674;-79
2022/12/13 10:36:16;;;;;;;16.67;13.67;;;1.00;39.60;;;;;;20870;6807;117307;-78
2022/12/13 10:38:41;;;;;;;18.00;16.10;;;1.00;39.80;;;;;;19542;7168;351759;-79
2022/12/13 10:41:24;;;;;;;17.57;14.07;;;1.10;39.60;;;;;;20715;6807;116884;-78
2022/12/13 10:44:13;;;;;;;16.20;12.27;;;1.10;39.60;;;;;;20773;6836;117348;-79
2022/12/13 10:46:40;;;;;;;14.50;11.37;;;0.80;40.80;;;;;;20744;6834;129087;-78
2022/12/13 10:49:19;;;;;;;19.77;17.40;;;0.70;40.80;;;;;;20366;6836;338159;-80
2022/12/13 10:51:45;;;;;;;14.27;12.17;;;0.90;40.90;;;;;;20772;6836;118096;-76
2022/12/13 10:54:11;;;;;;;15.70;11.93;;;1.10;40.90;;;;;;20783;6836;117398;-78
2022/12/13 10:56:40;;;;;;;16.62;11.65;;;1.00;41.10;;;;;;20752;6836;117613;-77
2022/12/13 10:59:09;;;;;;;16.13;14.43;;;1.00;41.60;;;;;;20547;6836;324793;-78
2022/12/13 11:01:34;;;;;;;14.90;12.70;;;1.20;40.30;;;;;;20777;6836;119857;-78
2022/12/13 11:04:20;;;;;;;15.20;13.70;;;1.40;40.10;;;;;;20570;6836;310641;-76
2022/12/13 11:06:45;;;;;;;16.13;14.57;;;1.50;38.70;;;;;;20542;6836;307989;-78
2022/12/13 11:09:15;;;;;;;13.85;11.88;;;1.90;38.50;;;;;;20768;6836;118068;-81
2022/12/13 11:11:41;;;;;;;14.75;13.02;;;1.80;38.50;;;;;;20547;6836;336884;-81
2022/12/13 11:14:06;;;;;;;13.45;10.43;;;1.90;37.20;;;;;;20782;6836;117052;-77
2022/12/13 11:16:38;;;;;;;11.03;9.80;;;1.90;37.50;;;;;;20721;6836;117665;-79
2022/12/13 11:19:13;;;;;;;18.25;16.42;;;1.70;37.80;;;;;;20553;6836;311294;-80
2022/12/13 11:21:39;;;;;;;17.12;15.32;;;1.80;37.00;;;;;;20296;6836;337732;-78
2022/12/13 11:24:05;;;;;;;15.53;13.93;;;2.00;36.10;;;;;;20547;6836;285878;-77
2022/12/13 11:26:30;;;;;;;13.97;12.50;;;2.20;35.80;;;;;;20542;6836;277793;-82
2022/12/13 11:28:59;;;;;;;14.05;12.70;;;2.40;35.30;;;;;;20564;6836;279219;-79
2022/12/13 11:31:36;;;;;;;12.87;11.60;;;2.60;35.00;;;;;;20531;6836;278863;-79
2022/12/13 11:34:05;;;;;;;12.63;11.50;;;2.70;34.20;;;;;;20518;6834;309682;-79
2022/12/13 11:36:30;;;;;;;13.80;12.37;;;2.80;34.00;;;;;;20521;6835;281900;-78
2022/12/13 11:39:16;;;;;;;13.13;11.82;;;2.90;33.80;;;;;;20235;6850;342365;-76
2022/12/13 11:41:55;;;;;;;12.57;8.73;;;2.70;34.10;;;;;;20723;6849;117492;-76
2022/12/13 11:44:42;;;;;;;10.07;8.93;;;2.70;34.10;;;;;;20664;6853;117727;-74
2022/12/13 11:47:06;;;;;;;10.70;9.47;;;2.30;34.90;;;;;;20720;6838;117331;-73
2022/12/13 11:49:39;;;;;;;12.70;11.47;;;2.00;35.90;;;;;;20529;6838;307654;-72
2022/12/13 11:52:04;;;;;;;12.83;11.60;;;2.00;35.90;;;;;;20544;6838;309250;-75
2022/12/13 11:54:53;;;;;;;12.60;11.47;;;2.20;35.10;;;;;;20516;6838;280875;-74
2022/12/13 11:57:38;;;;;;;11.83;10.73;;;2.50;34.50;;;;;;20554;6838;279391;-77
2022/12/13 12:00:04;;;;;;;13.87;10.00;;;2.70;33.70;;;;;;20780;6838;118176;-75
2022/12/13 12:02:33;;;;;;;12.10;8.13;;;2.50;34.30;;;;;;20748;6838;117764;-76
2022/12/13 12:04:59;;;;;;;9.00;8.10;;;2.20;35.10;;;;;;20782;6838;118278;-73
2022/12/13 12:07:31;;;;;;;9.60;8.10;;;2.00;35.80;;;;;;20774;6838;120880;-74
2022/12/13 12:10:13;;;;;;;14.83;12.87;;;1.80;36.30;;;;;;20547;6838;306839;-74
2022/12/13 12:12:40;;;;;;;13.80;12.50;;;1.90;35.90;;;;;;20553;6838;278793;-73
2022/12/13 12:15:19;;;;;;;9.37;8.30;;;2.30;35.30;;;;;;20739;6838;120229;-75
2022/12/13 12:17:45;;;;;;;9.97;8.93;;;2.30;35.40;;;;;;20765;6838;117193;-73
2022/12/13 12:20:11;;;;;;;9.30;7.70;;;2.10;35.80;;;;;;20757;6838;117513;-76
2022/12/13 12:22:40;;;;;;;9.45;8.35;;;1.90;36.20;;;;;;20730;6838;118014;-76
2022/12/13 12:25:21;;;;;;;7.83;7.13;;;1.70;36.50;;;;;;20738;6838;117450;-76